sensor_id;sensor_type;location;lat;lon;timestamp;pressure;altitude;pressure_sealevel;temperature;humidity
43364;BME280;40636;52.424;-1.948;2023-02-18T00:01:27;100380.09;;;10.00;100.00
43364;BME280;40636;52.424;-1.948;2023-02-18T00:03:57;100374.25;;;9.97;100.00
43364;BME280;40636;52.424;-1.948;2023-02-18T00:06:29;100377.00;;;9.97;100.00
43364;BME280;40636;52.424;-1.948;2023-02-18T00:08:57;100379.97;;;9.95;100.00
43364;BME280;40636;52.424;-1.948;2023-02-18T00:11:29;100376.16;;;9.96;100.00
43364;BME280;40636;52.424;-1.948;2023-02-18T00:13:58;100379.50;;;9.98;100.00
43364;BME280;40636;52.424;-1.948;2023-02-18T00:16:28;100372.97;;;9.99;100.00
43364;BME280;40636;52.424;-1.948;2023-02-18T00:18:58;100372.34;;;9.97;100.00
43364;BME280;40636;52.424;-1.948;2023-02-18T00:21:25;100361.63;;;9.96;100.00
43364;BME280;40636;52.424;-1.948;2023-02-18T00:23:53;100363.53;;;9.95;100.00
43364;BME280;40636;52.424;-1.948;2023-02-18T00:26:20;100370.06;;;9.94;100.00
43364;BME280;40636;52.424;-1.948;2023-02-18T00:28:47;100364.59;;;9.94;100.00
43364;BME280;40636;52.424;-1.948;2023-02-18T00:31:28;100359.34;;;9.93;100.00
43364;BME280;40636;52.424;-1.948;2023-02-18T00:33:56;100337.53;;;9.86;100.00
43364;BME280;40636;52.424;-1.948;2023-02-18T00:36:24;100329.66;;;9.78;100.00
43364;BME280;40636;52.424;-1.948;2023-02-18T00:38:53;100333.31;;;9.72;100.00
43364;BME280;40636;52.424;-1.948;2023-02-18T00:41:22;100316.53;;;9.68;100.00
43364;BME280;40636;52.424;-1.948;2023-02-18T00:43:49;100299.72;;;9.64;100.00
43364;BME280;40636;52.424;-1.948;2023-02-18T00:46:15;100306.88;;;9.65;100.00
43364;BME280;40636;52.424;-1.948;2023-02-18T00:48:42;100308.78;;;9.65;100.00
43364;BME280;40636;52.424;-1.948;2023-02-18T00:51:10;100313.44;;;9.64;100.00
43364;BME280;40636;52.424;-1.948;2023-02-18T00:53:38;100312.97;;;9.68;100.00
43364;BME280;40636;52.424;-1.948;2023-02-18T00:56:05;100301.50;;;9.71;100.00
43364;BME280;40636;52.424;-1.948;2023-02-18T00:58:33;100287.22;;;9.69;100.00
43364;BME280;40636;52.424;-1.948;2023-02-18T01:01:01;100285.56;;;9.68;100.00
43364;BME280;40636;52.424;-1.948;2023-02-18T01:03:27;100282.09;;;9.60;100.00
43364;BME280;40636;52.424;-1.948;2023-02-18T01:05:54;100274.94;;;9.59;100.00
43364;BME280;40636;52.424;-1.948;2023-02-18T01:08:21;100276.03;;;9.58;100.00
43364;BME280;40636;52.424;-1.948;2023-02-18T01:10:52;100278.59;;;9.53;100.00
43364;BME280;40636;52.424;-1.948;2023-02-18T01:13:19;100250.50;;;9.46;100.00
43364;BME280;40636;52.424;-1.948;2023-02-18T01:15:45;100257.41;;;9.49;100.00
43364;BME280;40636;52.424;-1.948;2023-02-18T01:18:13;100257.66;;;9.47;100.00
43364;BME280;40636;52.424;-1.948;2023-02-18T01:20:41;100262.75;;;9.44;100.00
43364;BME280;40636;52.424;-1.948;2023-02-18T01:23:08;100254.31;;;9.45;100.00
43364;BME280;40636;52.424;-1.948;2023-02-18T01:25:36;100267.78;;;9.47;100.00
43364;BME280;40636;52.424;-1.948;2023-02-18T01:28:04;100262.03;;;9.48;100.00
43364;BME280;40636;52.424;-1.948;2023-02-18T01:30:31;100251.69;;;9.50;100.00
43364;BME280;40636;52.424;-1.948;2023-02-18T01:32:58;100253.25;;;9.46;100.00
43364;BME280;40636;52.424;-1.948;2023-02-18T01:35:25;100246.31;;;9.44;100.00
43364;BME280;40636;52.424;-1.948;2023-02-18T01:37:52;100243.34;;;9.45;100.00
43364;BME280;40636;52.424;-1.948;2023-02-18T01:40:21;100243.34;;;9.45;100.00
43364;BME280;40636;52.424;-1.948;2023-02-18T01:42:48;100240.75;;;9.50;100.00
43364;BME280;40636;52.424;-1.948;2023-02-18T01:48:07;100227.25;;;9.49;100.00
43364;BME280;40636;52.424;-1.948;2023-02-18T01:50:43;100216.31;;;9.49;100.00
43364;BME280;40636;52.424;-1.948;2023-02-18T01:53:16;100222.28;;;9.46;100.00
43364;BME280;40636;52.424;-1.948;2023-02-18T01:55:45;100240.97;;;9.49;100.00
43364;BME280;40636;52.424;-1.948;2023-02-18T01:58:13;100237.63;;;9.47;100.00
43364;BME280;40636;52.424;-1.948;2023-02-18T02:00:40;100251.09;;;9.48;100.00
43364;BME280;40636;52.424;-1.948;2023-02-18T02:03:06;100233.56;;;9.49;100.00
43364;BME280;40636;52.424;-1.948;2023-02-18T02:05:33;100229.78;;;9.50;100.00
43364;BME280;40636;52.424;-1.948;2023-02-18T02:08:01;100220.50;;;9.51;100.00
43364;BME280;40636;52.424;-1.948;2023-02-18T02:10:47;100227.88;;;9.51;100.00
43364;BME280;40636;52.424;-1.948;2023-02-18T02:13:54;100219.28;;;9.47;100.00
43364;BME280;40636;52.424;-1.948;2023-02-18T02:16:26;100227.25;;;9.49;100.00
43364;BME280;40636;52.424;-1.948;2023-02-18T02:22:48;100225.84;;;9.46;100.00
43364;BME280;40636;52.424;-1.948;2023-02-18T02:25:26;100231.06;;;9.48;100.00
43364;BME280;40636;52.424;-1.948;2023-02-18T02:31:22;100233.81;;;9.48;100.00
43364;BME280;40636;52.424;-1.948;2023-02-18T02:36:53;100207.88;;;9.50;100.00
43364;BME280;40636;52.424;-1.948;2023-02-18T02:39:30;100205.34;;;9.49;100.00
43364;BME280;40636;52.424;-1.948;2023-02-18T02:44:44;100215.47;;;9.48;100.00
43364;BME280;40636;52.424;-1.948;2023-02-18T02:47:24;100211.66;;;9.49;100.00
43364;BME280;40636;52.424;-1.948;2023-02-18T02:50:06;100213.81;;;9.47;100.00
43364;BME280;40636;52.424;-1.948;2023-02-18T02:52:49;100198.47;;;9.46;100.00
43364;BME280;40636;52.424;-1.948;2023-02-18T02:55:18;100190.22;;;9.46;100.00
43364;BME280;40636;52.424;-1.948;2023-02-18T02:57:47;100176.53;;;9.46;100.00
43364;BME280;40636;52.424;-1.948;2023-02-18T03:00:16;100175.94;;;9.44;100.00
43364;BME280;40636;52.424;-1.948;2023-02-18T03:03:13;100178.09;;;9.42;100.00
43364;BME280;40636;52.424;-1.948;2023-02-18T03:08:54;100191.78;;;9.42;100.00
43364;BME280;40636;52.424;-1.948;2023-02-18T03:11:28;100192.59;;;9.43;100.00
43364;BME280;40636;52.424;-1.948;2023-02-18T03:14:12;100197.13;;;9.49;100.00
43364;BME280;40636;52.424;-1.948;2023-02-18T03:21:57;100178.56;;;9.51;100.00
43364;BME280;40636;52.424;-1.948;2023-02-18T03:24:29;100178.31;;;9.52;100.00
43364;BME280;40636;52.424;-1.948;2023-02-18T03:27:05;100171.75;;;9.53;100.00
43364;BME280;40636;52.424;-1.948;2023-02-18T03:29:34;100163.53;;;9.53;100.00
43364;BME280;40636;52.424;-1.948;2023-02-18T03:32:04;100166.91;;;9.55;100.00
43364;BME280;40636;52.424;-1.948;2023-02-18T03:34:37;100159.25;;;9.57;100.00
43364;BME280;40636;52.424;-1.948;2023-02-18T03:37:07;100152.22;;;9.61;100.00
43364;BME280;40636;52.424;-1.948;2023-02-18T03:39:36;100145.66;;;9.62;100.00
43364;BME280;40636;52.424;-1.948;2023-02-18T03:42:04;100139.72;;;9.65;100.00
43364;BME280;40636;52.424;-1.948;2023-02-18T03:44:31;100151.50;;;9.66;100.00
43364;BME280;40636;52.424;-1.948;2023-02-18T03:46:59;100155.06;;;9.66;100.00
43364;BME280;40636;52.424;-1.948;2023-02-18T03:49:25;100150.78;;;9.71;100.00
43364;BME280;40636;52.424;-1.948;2023-02-18T03:51:52;100153.88;;;9.74;100.00
43364;BME280;40636;52.424;-1.948;2023-02-18T03:54:19;100157.00;;;9.78;100.00
43364;BME280;40636;52.424;-1.948;2023-02-18T03:56:45;100152.09;;;9.80;100.00
43364;BME280;40636;52.424;-1.948;2023-02-18T03:59:12;100149.13;;;9.81;100.00
43364;BME280;40636;52.424;-1.948;2023-02-18T04:01:39;100146.72;;;9.85;100.00
43364;BME280;40636;52.424;-1.948;2023-02-18T04:04:05;100149.22;;;9.86;100.00
43364;BME280;40636;52.424;-1.948;2023-02-18T04:06:32;100141.00;;;9.86;100.00
43364;BME280;40636;52.424;-1.948;2023-02-18T04:08:59;100146.81;;;9.90;100.00
43364;BME280;40636;52.424;-1.948;2023-02-18T04:11:25;100151.00;;;9.93;100.00
43364;BME280;40636;52.424;-1.948;2023-02-18T04:13:52;100156.38;;;9.99;100.00
43364;BME280;40636;52.424;-1.948;2023-02-18T04:16:19;100142.41;;;10.01;100.00
43364;BME280;40636;52.424;-1.948;2023-02-18T04:18:45;100154.78;;;10.03;100.00
43364;BME280;40636;52.424;-1.948;2023-02-18T04:21:12;100142.97;;;10.03;100.00
43364;BME280;40636;52.424;-1.948;2023-02-18T04:23:39;100139.41;;;10.02;100.00
43364;BME280;40636;52.424;-1.948;2023-02-18T04:26:05;100139.66;;;10.01;100.00
43364;BME280;40636;52.424;-1.948;2023-02-18T04:28:33;100150.38;;;10.02;100.00
43364;BME280;40636;52.424;-1.948;2023-02-18T04:30:59;100162.91;;;9.98;100.00
43364;BME280;40636;52.424;-1.948;2023-02-18T04:33:26;100166.72;;;9.97;100.00
43364;BME280;40636;52.424;-1.948;2023-02-18T04:35:53;100160.16;;;9.98;100.00
43364;BME280;40636;52.424;-1.948;2023-02-18T04:38:20;100163.16;;;9.97;100.00
43364;BME280;40636;52.424;-1.948;2023-02-18T04:40:46;100160.41;;;9.97;100.00
43364;BME280;40636;52.424;-1.948;2023-02-18T04:43:13;100169.47;;;9.97;100.00
43364;BME280;40636;52.424;-1.948;2023-02-18T04:45:40;100173.75;;;9.93;100.00
43364;BME280;40636;52.424;-1.948;2023-02-18T04:48:06;100169.59;;;9.90;100.00
43364;BME280;40636;52.424;-1.948;2023-02-18T04:50:33;100166.00;;;9.90;100.00
43364;BME280;40636;52.424;-1.948;2023-02-18T04:53:00;100159.59;;;9.84;100.00
43364;BME280;40636;52.424;-1.948;2023-02-18T04:55:27;100157.69;;;9.85;100.00
43364;BME280;40636;52.424;-1.948;2023-02-18T04:57:54;100151.97;;;9.86;100.00
43364;BME280;40636;52.424;-1.948;2023-02-18T05:00:20;100149.44;;;9.85;100.00
43364;BME280;40636;52.424;-1.948;2023-02-18T05:02:47;100160.41;;;9.85;100.00
43364;BME280;40636;52.424;-1.948;2023-02-18T05:05:14;100169.72;;;9.84;100.00
43364;BME280;40636;52.424;-1.948;2023-02-18T05:07:41;100155.53;;;9.87;100.00
43364;BME280;40636;52.424;-1.948;2023-02-18T05:10:09;100167.09;;;9.89;100.00
43364;BME280;40636;52.424;-1.948;2023-02-18T05:12:37;100157.78;;;9.90;100.00
43364;BME280;40636;52.424;-1.948;2023-02-18T05:15:04;100156.13;;;9.89;100.00
43364;BME280;40636;52.424;-1.948;2023-02-18T05:17:31;100153.88;;;9.86;100.00
43364;BME280;40636;52.424;-1.948;2023-02-18T05:19:58;100160.41;;;9.85;100.00
43364;BME280;40636;52.424;-1.948;2023-02-18T05:22:24;100167.59;;;9.86;100.00
43364;BME280;40636;52.424;-1.948;2023-02-18T05:24:51;100166.63;;;9.80;100.00
43364;BME280;40636;52.424;-1.948;2023-02-18T05:27:18;100166.41;;;9.82;100.00
43364;BME280;40636;52.424;-1.948;2023-02-18T05:29:45;100161.75;;;9.82;100.00
43364;BME280;40636;52.424;-1.948;2023-02-18T05:32:11;100161.75;;;9.82;100.00
43364;BME280;40636;52.424;-1.948;2023-02-18T05:34:38;100163.41;;;9.83;100.00
43364;BME280;40636;52.424;-1.948;2023-02-18T05:37:05;100162.47;;;9.78;100.00
43364;BME280;40636;52.424;-1.948;2023-02-18T05:39:31;100165.31;;;9.71;100.00
43364;BME280;40636;52.424;-1.948;2023-02-18T05:41:58;100159.97;;;9.64;100.00
43364;BME280;40636;52.424;-1.948;2023-02-18T05:44:25;100159.97;;;9.64;100.00
43364;BME280;40636;52.424;-1.948;2023-02-18T05:47:01;100135.78;;;9.61;100.00
43364;BME280;40636;52.424;-1.948;2023-02-18T05:49:29;100145.81;;;9.56;100.00
43364;BME280;40636;52.424;-1.948;2023-02-18T05:51:56;100121.88;;;9.51;100.00
43364;BME280;40636;52.424;-1.948;2023-02-18T05:54:23;100146.03;;;9.43;100.00
43364;BME280;40636;52.424;-1.948;2023-02-18T05:56:50;100148.41;;;9.39;100.00
43364;BME280;40636;52.424;-1.948;2023-02-18T05:59:18;100162.13;;;9.39;100.00
43364;BME280;40636;52.424;-1.948;2023-02-18T06:01:45;100149.50;;;9.38;100.00
43364;BME280;40636;52.424;-1.948;2023-02-18T06:04:12;100151.16;;;9.39;100.00
43364;BME280;40636;52.424;-1.948;2023-02-18T06:06:39;100146.50;;;9.39;100.00
43364;BME280;40636;52.424;-1.948;2023-02-18T06:09:06;100142.81;;;9.34;100.00
43364;BME280;40636;52.424;-1.948;2023-02-18T06:11:33;100154.16;;;9.37;100.00
43364;BME280;40636;52.424;-1.948;2023-02-18T06:14:00;100165.47;;;9.41;100.00
43364;BME280;40636;52.424;-1.948;2023-02-18T06:16:27;100157.47;;;9.39;100.00
43364;BME280;40636;52.424;-1.948;2023-02-18T06:18:54;100147.34;;;9.40;100.00
43364;BME280;40636;52.424;-1.948;2023-02-18T06:21:21;100149.63;;;9.43;100.00
43364;BME280;40636;52.424;-1.948;2023-02-18T06:23:48;100139.75;;;9.42;100.00
43364;BME280;40636;52.424;-1.948;2023-02-18T06:26:14;100141.41;;;9.43;100.00
43364;BME280;40636;52.424;-1.948;2023-02-18T06:28:41;100146.88;;;9.43;100.00
43364;BME280;40636;52.424;-1.948;2023-02-18T06:31:08;100149.16;;;9.46;100.00
43364;BME280;40636;52.424;-1.948;2023-02-18T06:33:34;100142.94;;;9.51;100.00
43364;BME280;40636;52.424;-1.948;2023-02-18T06:36:04;100142.13;;;9.50;100.00
43364;BME280;40636;52.424;-1.948;2023-02-18T06:38:35;100146.78;;;9.50;100.00
43364;BME280;40636;52.424;-1.948;2023-02-18T06:41:02;100148.66;;;9.49;100.00
43364;BME280;40636;52.424;-1.948;2023-02-18T06:43:29;100155.22;;;9.48;100.00
43364;BME280;40636;52.424;-1.948;2023-02-18T06:45:56;100150.34;;;9.50;100.00
43364;BME280;40636;52.424;-1.948;2023-02-18T06:48:23;100146.28;;;9.53;100.00
43364;BME280;40636;52.424;-1.948;2023-02-18T06:50:49;100145.81;;;9.56;100.00
43364;BME280;40636;52.424;-1.948;2023-02-18T06:53:16;100146.63;;;9.56;100.00
43364;BME280;40636;52.424;-1.948;2023-02-18T06:55:44;100136.50;;;9.57;100.00
43364;BME280;40636;52.424;-1.948;2023-02-18T06:58:12;100143.06;;;9.56;100.00
43364;BME280;40636;52.424;-1.948;2023-02-18T07:00:39;100139.75;;;9.54;100.00
43364;BME280;40636;52.424;-1.948;2023-02-18T07:03:07;100140.78;;;9.53;100.00
43364;BME280;40636;52.424;-1.948;2023-02-18T07:05:33;100129.13;;;9.57;100.00
43364;BME280;40636;52.424;-1.948;2023-02-18T07:08:00;100128.06;;;9.58;100.00
43364;BME280;40636;52.424;-1.948;2023-02-18T07:10:27;100134.00;;;9.55;100.00
43364;BME280;40636;52.424;-1.948;2023-02-18T07:12:54;100140.06;;;9.57;100.00
43364;BME280;40636;52.424;-1.948;2023-02-18T07:15:20;100132.69;;;9.58;100.00
43364;BME280;40636;52.424;-1.948;2023-02-18T07:17:50;100138.16;;;9.58;100.00
43364;BME280;40636;52.424;-1.948;2023-02-18T07:20:18;100137.94;;;9.59;100.00
43364;BME280;40636;52.424;-1.948;2023-02-18T07:22:45;100132.69;;;9.58;100.00
43364;BME280;40636;52.424;-1.948;2023-02-18T07:25:13;100134.38;;;9.59;100.00
43364;BME280;40636;52.424;-1.948;2023-02-18T07:27:40;100136.50;;;9.57;100.00
43364;BME280;40636;52.424;-1.948;2023-02-18T07:30:07;100132.94;;;9.56;100.00
43364;BME280;40636;52.424;-1.948;2023-02-18T07:32:34;100134.59;;;9.57;100.00
43364;BME280;40636;52.424;-1.948;2023-02-18T07:35:02;100133.19;;;9.55;100.00
43364;BME280;40636;52.424;-1.948;2023-02-18T07:37:29;100139.50;;;9.55;100.00
43364;BME280;40636;52.424;-1.948;2023-02-18T07:39:55;100146.38;;;9.58;100.00
43364;BME280;40636;52.424;-1.948;2023-02-18T07:42:22;100160.94;;;9.58;100.00
43364;BME280;40636;52.424;-1.948;2023-02-18T07:44:49;100157.13;;;9.59;100.00
43364;BME280;40636;52.424;-1.948;2023-02-18T07:47:16;100160.44;;;9.61;100.00
43364;BME280;40636;52.424;-1.948;2023-02-18T07:49:46;100168.44;;;9.63;100.00
43364;BME280;40636;52.424;-1.948;2023-02-18T07:52:14;100157.81;;;9.66;100.00
43364;BME280;40636;52.424;-1.948;2023-02-18T07:54:41;100162.47;;;9.66;100.00
43364;BME280;40636;52.424;-1.948;2023-02-18T07:57:07;100154.97;;;9.61;100.00
43364;BME280;40636;52.424;-1.948;2023-02-18T07:59:34;100151.41;;;9.61;100.00
43364;BME280;40636;52.424;-1.948;2023-02-18T08:02:01;100157.13;;;9.59;100.00
43364;BME280;40636;52.424;-1.948;2023-02-18T08:04:28;100161.28;;;9.62;100.00
43364;BME280;40636;52.424;-1.948;2023-02-18T08:06:55;100161.28;;;9.62;100.00
43364;BME280;40636;52.424;-1.948;2023-02-18T08:09:22;100162.25;;;9.68;100.00
43364;BME280;40636;52.424;-1.948;2023-02-18T08:11:49;100171.63;;;9.72;100.00
43364;BME280;40636;52.424;-1.948;2023-02-18T08:14:15;100164.03;;;9.74;100.00
43364;BME280;40636;52.424;-1.948;2023-02-18T08:16:42;100171.28;;;9.80;100.00
43364;BME280;40636;52.424;-1.948;2023-02-18T08:19:09;100173.06;;;9.86;100.00
43364;BME280;40636;52.424;-1.948;2023-02-18T08:21:36;100173.75;;;9.93;100.00
43364;BME280;40636;52.424;-1.948;2023-02-18T08:24:02;100172.81;;;9.99;100.00
43364;BME280;40636;52.424;-1.948;2023-02-18T08:26:29;100172.94;;;10.04;100.00
43364;BME280;40636;52.424;-1.948;2023-02-18T08:28:56;100166.47;;;10.10;100.00
43364;BME280;40636;52.424;-1.948;2023-02-18T08:31:25;100169.06;;;10.17;100.00
43364;BME280;40636;52.424;-1.948;2023-02-18T08:33:53;100153.78;;;10.21;100.00
43364;BME280;40636;52.424;-1.948;2023-02-18T08:36:21;100167.28;;;10.23;100.00
43364;BME280;40636;52.424;-1.948;2023-02-18T08:38:48;100160.00;;;10.28;100.00
43364;BME280;40636;52.424;-1.948;2023-02-18T08:41:15;100157.72;;;10.37;100.00
43364;BME280;40636;52.424;-1.948;2023-02-18T08:43:45;100167.69;;;10.43;100.00
43364;BME280;40636;52.424;-1.948;2023-02-18T08:46:12;100163.41;;;10.47;100.00
43364;BME280;40636;52.424;-1.948;2023-02-18T08:48:42;100158.84;;;10.53;100.00
43364;BME280;40636;52.424;-1.948;2023-02-18T08:51:12;100158.09;;;10.57;100.00
43364;BME280;40636;52.424;-1.948;2023-02-18T08:53:39;100163.44;;;10.64;100.00
43364;BME280;40636;52.424;-1.948;2023-02-18T08:56:07;100168.44;;;10.67;100.00
43364;BME280;40636;52.424;-1.948;2023-02-18T08:58:36;100171.78;;;10.69;100.00
43364;BME280;40636;52.424;-1.948;2023-02-18T09:01:07;100177.09;;;10.76;100.00
43364;BME280;40636;52.424;-1.948;2023-02-18T09:03:35;100181.53;;;10.77;100.00
43364;BME280;40636;52.424;-1.948;2023-02-18T09:06:02;100179.94;;;10.81;100.00
43364;BME280;40636;52.424;-1.948;2023-02-18T09:08:29;100173.97;;;10.84;100.00
43364;BME280;40636;52.424;-1.948;2023-02-18T09:10:58;100172.47;;;10.93;100.00
43364;BME280;40636;52.424;-1.948;2023-02-18T09:13:25;100167.31;;;10.97;100.00
43364;BME280;40636;52.424;-1.948;2023-02-18T09:16:04;100168.50;;;11.01;100.00
43364;BME280;40636;52.424;-1.948;2023-02-18T09:18:32;100171.00;;;11.02;100.00
43364;BME280;40636;52.424;-1.948;2023-02-18T09:21:01;100177.66;;;11.06;100.00
43364;BME280;40636;52.424;-1.948;2023-02-18T09:23:29;100174.16;;;11.11;100.00
43364;BME280;40636;52.424;-1.948;2023-02-18T09:25:56;100185.00;;;11.17;100.00
43364;BME280;40636;52.424;-1.948;2023-02-18T09:28:23;100189.50;;;11.24;100.00
43364;BME280;40636;52.424;-1.948;2023-02-18T09:30:51;100185.16;;;11.28;100.00
43364;BME280;40636;52.424;-1.948;2023-02-18T09:33:18;100181.66;;;11.32;100.00
43364;BME280;40636;52.424;-1.948;2023-02-18T09:35:45;100180.66;;;11.38;100.00
43364;BME280;40636;52.424;-1.948;2023-02-18T09:38:15;100179.00;;;11.37;100.00
43364;BME280;40636;52.424;-1.948;2023-02-18T09:40:44;100179.34;;;11.41;100.00
43364;BME280;40636;52.424;-1.948;2023-02-18T09:43:32;100188.41;;;11.41;100.00
43364;BME280;40636;52.424;-1.948;2023-02-18T09:46:02;100182.66;;;11.43;100.00
43364;BME280;40636;52.424;-1.948;2023-02-18T09:48:32;100182.66;;;11.43;100.00
43364;BME280;40636;52.424;-1.948;2023-02-18T09:51:00;100194.47;;;11.43;100.00
43364;BME280;40636;52.424;-1.948;2023-02-18T09:53:27;100196.91;;;11.40;100.00
43364;BME280;40636;52.424;-1.948;2023-02-18T09:55:55;100191.50;;;11.45;100.00
43364;BME280;40636;52.424;-1.948;2023-02-18T09:58:26;100201.22;;;11.53;100.00
43364;BME280;40636;52.424;-1.948;2023-02-18T10:01:17;100205.97;;;11.57;100.00
43364;BME280;40636;52.424;-1.948;2023-02-18T10:03:47;100207.47;;;11.65;100.00
43364;BME280;40636;52.424;-1.948;2023-02-18T10:06:24;100209.19;;;11.71;100.00
43364;BME280;40636;52.424;-1.948;2023-02-18T10:08:53;100212.78;;;11.72;100.00
43364;BME280;40636;52.424;-1.948;2023-02-18T10:11:32;100208.44;;;11.76;100.00
43364;BME280;40636;52.424;-1.948;2023-02-18T10:14:01;100217.72;;;11.86;100.00
43364;BME280;40636;52.424;-1.948;2023-02-18T10:16:28;100210.38;;;11.92;100.00
43364;BME280;40636;52.424;-1.948;2023-02-18T10:18:58;100206.47;;;11.88;100.00
43364;BME280;40636;52.424;-1.948;2023-02-18T10:21:29;100213.97;;;11.92;100.00
43364;BME280;40636;52.424;-1.948;2023-02-18T10:24:16;100210.13;;;11.93;100.00
43364;BME280;40636;52.424;-1.948;2023-02-18T10:26:45;100225.78;;;11.93;100.00
43364;BME280;40636;52.424;-1.948;2023-02-18T10:29:15;100226.31;;;11.90;100.00
43364;BME280;40636;52.424;-1.948;2023-02-18T10:34:55;100235.81;;;11.82;100.00
43364;BME280;40636;52.424;-1.948;2023-02-18T10:43:23;100257.97;;;11.92;100.00
43364;BME280;40636;52.424;-1.948;2023-02-18T10:49:00;100245.13;;;11.81;100.00
43364;BME280;40636;52.424;-1.948;2023-02-18T10:51:32;100260.19;;;11.79;100.00
43364;BME280;40636;52.424;-1.948;2023-02-18T10:53:59;100260.19;;;11.79;100.00
43364;BME280;40636;52.424;-1.948;2023-02-18T10:59:13;100265.31;;;11.87;100.00
43364;BME280;40636;52.424;-1.948;2023-02-18T11:01:41;100272.72;;;11.86;100.00
43364;BME280;40636;52.424;-1.948;2023-02-18T11:04:15;100265.19;;;11.82;100.00
43364;BME280;40636;52.424;-1.948;2023-02-18T11:06:48;100265.13;;;11.77;100.00
43364;BME280;40636;52.424;-1.948;2023-02-18T11:17:33;100264.88;;;11.78;100.00
43364;BME280;40636;52.424;-1.948;2023-02-18T11:22:44;100271.03;;;11.85;100.00
43364;BME280;40636;52.424;-1.948;2023-02-18T11:25:20;100269.78;;;11.93;100.00
43364;BME280;40636;52.424;-1.948;2023-02-18T11:27:59;100269.31;;;11.96;100.00
43364;BME280;40636;52.424;-1.948;2023-02-18T11:30:37;100281.47;;;12.00;100.00
43364;BME280;40636;52.424;-1.948;2023-02-18T11:33:22;100280.31;;;11.96;100.00
43364;BME280;40636;52.424;-1.948;2023-02-18T11:35:53;100282.22;;;11.96;100.00
43364;BME280;40636;52.424;-1.948;2023-02-18T11:38:27;100276.31;;;11.87;100.00
43364;BME280;40636;52.424;-1.948;2023-02-18T11:40:58;100289.47;;;11.85;100.00
43364;BME280;40636;52.424;-1.948;2023-02-18T11:43:30;100283.03;;;11.79;100.00
43364;BME280;40636;52.424;-1.948;2023-02-18T11:46:20;100279.94;;;11.76;100.00
43364;BME280;40636;52.424;-1.948;2023-02-18T11:48:49;100281.09;;;11.80;100.00
43364;BME280;40636;52.424;-1.948;2023-02-18T11:51:45;100276.31;;;11.87;100.00
43364;BME280;40636;52.424;-1.948;2023-02-18T11:54:30;100284.91;;;11.90;100.00
43364;BME280;40636;52.424;-1.948;2023-02-18T11:57:11;100288.44;;;12.08;100.00
43364;BME280;40636;52.424;-1.948;2023-02-18T11:59:41;100283.75;;;12.25;100.00
43364;BME280;40636;52.424;-1.948;2023-02-18T12:04:57;100267.59;;;12.51;100.00
43364;BME280;40636;52.424;-1.948;2023-02-18T12:07:30;100254.28;;;12.64;100.00
43364;BME280;40636;52.424;-1.948;2023-02-18T12:10:11;100252.06;;;12.66;100.00
43364;BME280;40636;52.424;-1.948;2023-02-18T12:12:53;100245.28;;;12.74;100.00
43364;BME280;40636;52.424;-1.948;2023-02-18T12:15:28;100260.72;;;12.75;100.00
43364;BME280;40636;52.424;-1.948;2023-02-18T12:23:28;100228.31;;;12.82;100.00
43364;BME280;40636;52.424;-1.948;2023-02-18T12:33:47;100250.47;;;13.19;100.00
43364;BME280;40636;52.424;-1.948;2023-02-18T12:42:24;100255.09;;;13.14;100.00
43364;BME280;40636;52.424;-1.948;2023-02-18T12:51:03;100238.13;;;13.22;100.00
43364;BME280;40636;52.424;-1.948;2023-02-18T12:53:53;100247.03;;;13.07;100.00
43364;BME280;40636;52.424;-1.948;2023-02-18T12:56:40;100245.41;;;13.11;100.00
43364;BME280;40636;52.424;-1.948;2023-02-18T13:05:28;100221.38;;;13.29;100.00
43364;BME280;40636;52.424;-1.948;2023-02-18T13:13:48;100215.44;;;13.42;100.00
43364;BME280;40636;52.424;-1.948;2023-02-18T13:16:18;100214.59;;;13.41;100.00
43364;BME280;40636;52.424;-1.948;2023-02-18T13:21:36;100221.94;;;13.63;100.00
43364;BME280;40636;52.424;-1.948;2023-02-18T13:24:13;100238.50;;;13.63;100.00
43364;BME280;40636;52.424;-1.948;2023-02-18T13:26:45;100235.16;;;13.61;100.00
43364;BME280;40636;52.424;-1.948;2023-02-18T13:29:28;100229.03;;;13.54;100.00
43364;BME280;40636;52.424;-1.948;2023-02-18T13:32:08;100224.84;;;13.46;100.00
43364;BME280;40636;52.424;-1.948;2023-02-18T13:34:55;100220.44;;;13.45;100.00
43364;BME280;40636;52.424;-1.948;2023-02-18T13:39:58;100226.09;;;13.65;100.00
43364;BME280;40636;52.424;-1.948;2023-02-18T13:52:48;100206.28;;;13.36;100.00
43364;BME280;40636;52.424;-1.948;2023-02-18T13:55:21;100213.69;;;13.31;100.00
43364;BME280;40636;52.424;-1.948;2023-02-18T13:57:52;100225.53;;;13.31;100.00
43364;BME280;40636;52.424;-1.948;2023-02-18T14:00:23;100223.03;;;13.30;100.00
43364;BME280;40636;52.424;-1.948;2023-02-18T14:03:04;100219.00;;;13.15;100.00
43364;BME280;40636;52.424;-1.948;2023-02-18T14:05:45;100212.97;;;13.18;100.00
43364;BME280;40636;52.424;-1.948;2023-02-18T14:08:28;100203.00;;;13.12;100.00
43364;BME280;40636;52.424;-1.948;2023-02-18T14:13:42;100208.41;;;13.02;100.00
43364;BME280;40636;52.424;-1.948;2023-02-18T14:16:10;100197.81;;;12.89;100.00
43364;BME280;40636;52.424;-1.948;2023-02-18T14:23:59;100187.00;;;12.82;100.00
43364;BME280;40636;52.424;-1.948;2023-02-18T14:26:32;100183.88;;;12.74;100.00
43364;BME280;40636;52.424;-1.948;2023-02-18T14:29:04;100178.88;;;12.70;100.00
43364;BME280;40636;52.424;-1.948;2023-02-18T14:31:48;100176.66;;;12.67;100.00
43364;BME280;40636;52.424;-1.948;2023-02-18T14:34:33;100176.13;;;12.70;100.00
43364;BME280;40636;52.424;-1.948;2023-02-18T14:40:00;100170.91;;;12.47;100.00
43364;BME280;40636;52.424;-1.948;2023-02-18T14:50:23;100161.56;;;12.48;100.00
43364;BME280;40636;52.424;-1.948;2023-02-18T14:52:56;100153.00;;;12.44;100.00
43364;BME280;40636;52.424;-1.948;2023-02-18T14:55:31;100167.56;;;12.40;100.00